sensor_id;sensor_type;location;lat;lon;timestamp;temperature;humidity
25468;DHT22;13384;24.794;110.498;2022-11-12T00:01:32;22.90;93.00
25468;DHT22;13384;24.794;110.498;2022-11-12T00:07:28;23.00;93.00
25468;DHT22;13384;24.794;110.498;2022-11-12T00:16:25;23.00;92.90
25468;DHT22;13384;24.794;110.498;2022-11-12T00:33:19;23.10;93.10
25468;DHT22;13384;24.794;110.498;2022-11-12T00:52:23;23.20;93.00
25468;DHT22;13384;24.794;110.498;2022-11-12T00:55:42;23.30;93.20
25468;DHT22;13384;24.794;110.498;2022-11-12T01:02:14;23.30;94.10
25468;DHT22;13384;24.794;110.498;2022-11-12T01:08:09;23.30;93.90
25468;DHT22;13384;24.794;110.498;2022-11-12T01:11:09;23.30;94.20
25468;DHT22;13384;24.794;110.498;2022-11-12T01:17:52;23.40;95.00
25468;DHT22;13384;24.794;110.498;2022-11-12T01:20:41;23.40;95.60
25468;DHT22;13384;24.794;110.498;2022-11-12T01:23:52;23.30;95.80
25468;DHT22;13384;24.794;110.498;2022-11-12T01:27:05;23.30;95.80
25468;DHT22;13384;24.794;110.498;2022-11-12T01:36:50;23.30;96.00
25468;DHT22;13384;24.794;110.498;2022-11-12T01:49:56;23.20;95.70
25468;DHT22;13384;24.794;110.498;2022-11-12T01:56:40;23.30;95.70
25468;DHT22;13384;24.794;110.498;2022-11-12T02:03:22;23.30;95.70
25468;DHT22;13384;24.794;110.498;2022-11-12T02:19:28;23.30;95.80
25468;DHT22;13384;24.794;110.498;2022-11-12T02:33:07;23.30;95.70
25468;DHT22;13384;24.794;110.498;2022-11-12T02:35:53;23.30;95.50
25468;DHT22;13384;24.794;110.498;2022-11-12T02:38:40;23.40;95.50
25468;DHT22;13384;24.794;110.498;2022-11-12T02:48:05;23.40;95.80
25468;DHT22;13384;24.794;110.498;2022-11-12T02:51:22;23.40;95.80
25468;DHT22;13384;24.794;110.498;2022-11-12T02:54:34;23.40;95.90
25468;DHT22;13384;24.794;110.498;2022-11-12T02:57:24;23.40;95.80
25468;DHT22;13384;24.794;110.498;2022-11-12T03:00:35;23.30;95.60
25468;DHT22;13384;24.794;110.498;2022-11-12T03:07:12;23.40;95.40
25468;DHT22;13384;24.794;110.498;2022-11-12T03:13:20;23.40;95.30
25468;DHT22;13384;24.794;110.498;2022-11-12T03:26:50;23.50;94.90
25468;DHT22;13384;24.794;110.498;2022-11-12T03:29:37;23.50;94.90
25468;DHT22;13384;24.794;110.498;2022-11-12T03:32:24;23.50;94.90
25468;DHT22;13384;24.794;110.498;2022-11-12T03:35:11;23.50;94.90
25468;DHT22;13384;24.794;110.498;2022-11-12T03:37:58;23.50;94.80
25468;DHT22;13384;24.794;110.498;2022-11-12T03:40:45;23.50;94.80
25468;DHT22;13384;24.794;110.498;2022-11-12T03:43:32;23.50;94.90
25468;DHT22;13384;24.794;110.498;2022-11-12T03:46:18;23.50;94.80
25468;DHT22;13384;24.794;110.498;2022-11-12T03:49:05;23.60;94.80
25468;DHT22;13384;24.794;110.498;2022-11-12T03:51:52;23.50;94.80
25468;DHT22;13384;24.794;110.498;2022-11-12T03:54:39;23.50;94.90
25468;DHT22;13384;24.794;110.498;2022-11-12T03:57:25;23.50;94.90
25468;DHT22;13384;24.794;110.498;2022-11-12T04:00:28;23.50;95.00
25468;DHT22;13384;24.794;110.498;2022-11-12T04:03:17;23.50;94.80
25468;DHT22;13384;24.794;110.498;2022-11-12T04:06:07;23.50;94.70
25468;DHT22;13384;24.794;110.498;2022-11-12T04:09:14;23.50;94.80
25468;DHT22;13384;24.794;110.498;2022-11-12T04:12:03;23.50;94.70
25468;DHT22;13384;24.794;110.498;2022-11-12T04:15:12;23.50;94.70
25468;DHT22;13384;24.794;110.498;2022-11-12T04:18:02;23.50;94.60
25468;DHT22;13384;24.794;110.498;2022-11-12T04:21:14;23.40;94.60
25468;DHT22;13384;24.794;110.498;2022-11-12T04:24:45;23.50;94.50
25468;DHT22;13384;24.794;110.498;2022-11-12T04:27:51;23.40;94.50
25468;DHT22;13384;24.794;110.498;2022-11-12T04:30:40;23.50;94.50
25468;DHT22;13384;24.794;110.498;2022-11-12T04:33:29;23.40;94.60
25468;DHT22;13384;24.794;110.498;2022-11-12T04:36:18;23.50;94.50
25468;DHT22;13384;24.794;110.498;2022-11-12T04:39:07;23.50;94.40
25468;DHT22;13384;24.794;110.498;2022-11-12T04:42:16;23.50;94.60
25468;DHT22;13384;24.794;110.498;2022-11-12T04:45:24;23.50;94.30
25468;DHT22;13384;24.794;110.498;2022-11-12T04:48:13;23.50;94.30
25468;DHT22;13384;24.794;110.498;2022-11-12T04:51:04;23.50;94.30
25468;DHT22;13384;24.794;110.498;2022-11-12T04:54:15;23.60;94.20
25468;DHT22;13384;24.794;110.498;2022-11-12T04:57:25;23.60;94.30
25468;DHT22;13384;24.794;110.498;2022-11-12T05:00:15;23.60;94.20
25468;DHT22;13384;24.794;110.498;2022-11-12T05:03:04;23.60;94.20
25468;DHT22;13384;24.794;110.498;2022-11-12T05:06:00;23.60;94.10
25468;DHT22;13384;24.794;110.498;2022-11-12T05:08:49;23.60;94.10
25468;DHT22;13384;24.794;110.498;2022-11-12T05:11:38;23.60;94.10
25468;DHT22;13384;24.794;110.498;2022-11-12T05:14:27;23.60;93.90
25468;DHT22;13384;24.794;110.498;2022-11-12T05:17:17;23.60;94.30
25468;DHT22;13384;24.794;110.498;2022-11-12T05:20:06;23.60;94.00
25468;DHT22;13384;24.794;110.498;2022-11-12T05:22:56;23.60;93.90
25468;DHT22;13384;24.794;110.498;2022-11-12T05:25:53;23.70;93.90
25468;DHT22;13384;24.794;110.498;2022-11-12T05:28:42;23.60;93.90
25468;DHT22;13384;24.794;110.498;2022-11-12T05:31:31;23.70;93.90
25468;DHT22;13384;24.794;110.498;2022-11-12T05:34:20;23.70;93.90
25468;DHT22;13384;24.794;110.498;2022-11-12T05:37:11;23.60;93.80
25468;DHT22;13384;24.794;110.498;2022-11-12T05:40:00;23.60;93.90
25468;DHT22;13384;24.794;110.498;2022-11-12T05:42:49;23.60;94.00
25468;DHT22;13384;24.794;110.498;2022-11-12T05:45:42;23.60;94.40
25468;DHT22;13384;24.794;110.498;2022-11-12T05:48:31;23.70;93.90
25468;DHT22;13384;24.794;110.498;2022-11-12T05:51:20;23.60;93.90
25468;DHT22;13384;24.794;110.498;2022-11-12T05:54:09;23.70;93.70
25468;DHT22;13384;24.794;110.498;2022-11-12T05:56:59;23.70;93.70
25468;DHT22;13384;24.794;110.498;2022-11-12T05:59:47;23.70;93.70
25468;DHT22;13384;24.794;110.498;2022-11-12T06:02:37;23.70;93.80
25468;DHT22;13384;24.794;110.498;2022-11-12T06:05:26;23.70;93.60
25468;DHT22;13384;24.794;110.498;2022-11-12T06:08:15;23.70;93.70
25468;DHT22;13384;24.794;110.498;2022-11-12T06:11:04;23.70;93.70
25468;DHT22;13384;24.794;110.498;2022-11-12T06:13:54;23.70;93.70
25468;DHT22;13384;24.794;110.498;2022-11-12T06:16:43;23.70;93.70
25468;DHT22;13384;24.794;110.498;2022-11-12T06:19:32;23.70;93.70
25468;DHT22;13384;24.794;110.498;2022-11-12T06:22:22;23.70;93.60
25468;DHT22;13384;24.794;110.498;2022-11-12T06:25:12;23.70;93.60
25468;DHT22;13384;24.794;110.498;2022-11-12T06:28:17;23.70;93.70
25468;DHT22;13384;24.794;110.498;2022-11-12T06:31:06;23.70;93.70
25468;DHT22;13384;24.794;110.498;2022-11-12T06:33:55;23.70;93.60
25468;DHT22;13384;24.794;110.498;2022-11-12T06:36:44;23.70;93.50
25468;DHT22;13384;24.794;110.498;2022-11-12T06:39:54;23.70;93.40
25468;DHT22;13384;24.794;110.498;2022-11-12T06:42:42;23.70;93.30
25468;DHT22;13384;24.794;110.498;2022-11-12T06:45:32;23.70;93.70
25468;DHT22;13384;24.794;110.498;2022-11-12T06:48:21;23.70;93.30
25468;DHT22;13384;24.794;110.498;2022-11-12T06:51:20;23.70;93.40
25468;DHT22;13384;24.794;110.498;2022-11-12T06:54:10;23.70;93.40
25468;DHT22;13384;24.794;110.498;2022-11-12T06:57:00;23.80;93.40
25468;DHT22;13384;24.794;110.498;2022-11-12T06:59:50;23.70;93.30
25468;DHT22;13384;24.794;110.498;2022-11-12T07:02:38;23.70;93.40
25468;DHT22;13384;24.794;110.498;2022-11-12T07:09:09;23.70;93.30
25468;DHT22;13384;24.794;110.498;2022-11-12T07:11:59;23.80;93.30
25468;DHT22;13384;24.794;110.498;2022-11-12T07:14:47;23.80;93.10
25468;DHT22;13384;24.794;110.498;2022-11-12T07:17:37;23.80;93.10
25468;DHT22;13384;24.794;110.498;2022-11-12T07:20:27;23.80;93.10
25468;DHT22;13384;24.794;110.498;2022-11-12T07:23:15;23.80;93.20
25468;DHT22;13384;24.794;110.498;2022-11-12T07:29:15;23.80;93.10
25468;DHT22;13384;24.794;110.498;2022-11-12T07:32:24;23.80;93.20
25468;DHT22;13384;24.794;110.498;2022-11-12T07:36:02;23.80;93.10
25468;DHT22;13384;24.794;110.498;2022-11-12T07:38:54;23.90;93.10
25468;DHT22;13384;24.794;110.498;2022-11-12T07:41:43;23.80;93.00
25468;DHT22;13384;24.794;110.498;2022-11-12T07:44:32;23.80;92.90
25468;DHT22;13384;24.794;110.498;2022-11-12T07:47:40;23.80;93.00
25468;DHT22;13384;24.794;110.498;2022-11-12T07:50:30;23.80;92.80
25468;DHT22;13384;24.794;110.498;2022-11-12T07:53:19;23.80;92.80
25468;DHT22;13384;24.794;110.498;2022-11-12T07:56:12;23.80;92.70
25468;DHT22;13384;24.794;110.498;2022-11-12T07:59:02;23.90;92.80
25468;DHT22;13384;24.794;110.498;2022-11-12T08:01:51;23.90;92.90
25468;DHT22;13384;24.794;110.498;2022-11-12T08:04:43;23.90;92.80
25468;DHT22;13384;24.794;110.498;2022-11-12T08:07:32;23.90;92.70
25468;DHT22;13384;24.794;110.498;2022-11-12T08:10:21;23.90;92.80
25468;DHT22;13384;24.794;110.498;2022-11-12T08:13:10;23.90;92.80
25468;DHT22;13384;24.794;110.498;2022-11-12T08:16:00;23.90;92.80
25468;DHT22;13384;24.794;110.498;2022-11-12T08:19:02;23.90;92.60
25468;DHT22;13384;24.794;110.498;2022-11-12T08:21:51;23.90;92.60
25468;DHT22;13384;24.794;110.498;2022-11-12T08:24:40;23.90;92.70
25468;DHT22;13384;24.794;110.498;2022-11-12T08:27:30;23.90;92.50
25468;DHT22;13384;24.794;110.498;2022-11-12T08:30:19;23.90;92.50
25468;DHT22;13384;24.794;110.498;2022-11-12T08:33:29;23.90;92.70
25468;DHT22;13384;24.794;110.498;2022-11-12T08:36:19;23.90;92.60
25468;DHT22;13384;24.794;110.498;2022-11-12T08:39:08;23.90;92.50
25468;DHT22;13384;24.794;110.498;2022-11-12T08:41:57;23.90;92.60
25468;DHT22;13384;24.794;110.498;2022-11-12T08:44:46;23.90;92.40
25468;DHT22;13384;24.794;110.498;2022-11-12T08:48:06;23.90;92.50
25468;DHT22;13384;24.794;110.498;2022-11-12T08:50:56;23.90;92.30
25468;DHT22;13384;24.794;110.498;2022-11-12T08:53:45;23.90;92.40
25468;DHT22;13384;24.794;110.498;2022-11-12T08:56:34;24.00;92.40
25468;DHT22;13384;24.794;110.498;2022-11-12T08:59:48;24.00;92.30
25468;DHT22;13384;24.794;110.498;2022-11-12T09:02:37;24.00;92.20
25468;DHT22;13384;24.794;110.498;2022-11-12T09:05:27;24.00;92.10
25468;DHT22;13384;24.794;110.498;2022-11-12T09:08:19;24.10;92.00
25468;DHT22;13384;24.794;110.498;2022-11-12T09:11:09;24.10;91.90
25468;DHT22;13384;24.794;110.498;2022-11-12T09:14:18;24.10;91.90
25468;DHT22;13384;24.794;110.498;2022-11-12T09:17:07;24.10;91.80
25468;DHT22;13384;24.794;110.498;2022-11-12T09:19:56;24.10;92.10
25468;DHT22;13384;24.794;110.498;2022-11-12T09:22:45;24.00;92.00
25468;DHT22;13384;24.794;110.498;2022-11-12T09:25:34;24.00;92.00
25468;DHT22;13384;24.794;110.498;2022-11-12T09:28:23;24.00;92.00
25468;DHT22;13384;24.794;110.498;2022-11-12T09:31:13;24.00;92.20
25468;DHT22;13384;24.794;110.498;2022-11-12T09:34:03;24.00;92.10
25468;DHT22;13384;24.794;110.498;2022-11-12T09:36:53;23.90;92.10
25468;DHT22;13384;24.794;110.498;2022-11-12T09:39:42;23.90;92.00
25468;DHT22;13384;24.794;110.498;2022-11-12T09:42:34;23.90;92.10
25468;DHT22;13384;24.794;110.498;2022-11-12T09:45:28;23.90;92.00
25468;DHT22;13384;24.794;110.498;2022-11-12T09:48:23;23.90;92.10
25468;DHT22;13384;24.794;110.498;2022-11-12T09:51:52;23.80;92.10
25468;DHT22;13384;24.794;110.498;2022-11-12T09:54:43;23.90;92.10
25468;DHT22;13384;24.794;110.498;2022-11-12T09:57:33;23.80;92.10
25468;DHT22;13384;24.794;110.498;2022-11-12T10:00:22;23.80;92.10
25468;DHT22;13384;24.794;110.498;2022-11-12T10:03:26;23.80;92.20
25468;DHT22;13384;24.794;110.498;2022-11-12T10:06:22;23.80;92.10
25468;DHT22;13384;24.794;110.498;2022-11-12T10:09:48;23.80;92.20
25468;DHT22;13384;24.794;110.498;2022-11-12T10:25:15;23.80;92.10
25468;DHT22;13384;24.794;110.498;2022-11-12T10:28:25;23.80;92.10
25468;DHT22;13384;24.794;110.498;2022-11-12T10:31:20;23.80;92.10
25468;DHT22;13384;24.794;110.498;2022-11-12T10:34:35;23.80;92.10
25468;DHT22;13384;24.794;110.498;2022-11-12T10:37:37;23.80;92.10
25468;DHT22;13384;24.794;110.498;2022-11-12T10:40:33;23.80;92.10
25468;DHT22;13384;24.794;110.498;2022-11-12T10:43:24;23.80;92.10
25468;DHT22;13384;24.794;110.498;2022-11-12T10:46:36;23.80;92.10
25468;DHT22;13384;24.794;110.498;2022-11-12T10:49:25;23.80;92.10
25468;DHT22;13384;24.794;110.498;2022-11-12T10:52:23;23.80;92.10
25468;DHT22;13384;24.794;110.498;2022-11-12T10:55:29;23.80;92.10
25468;DHT22;13384;24.794;110.498;2022-11-12T10:58:19;23.80;92.10
25468;DHT22;13384;24.794;110.498;2022-11-12T11:01:16;23.80;92.00
25468;DHT22;13384;24.794;110.498;2022-11-12T11:04:14;23.80;92.10
25468;DHT22;13384;24.794;110.498;2022-11-12T11:07:19;23.80;92.00
25468;DHT22;13384;24.794;110.498;2022-11-12T11:10:29;23.80;92.00
25468;DHT22;13384;24.794;110.498;2022-11-12T11:13:19;23.80;92.00
25468;DHT22;13384;24.794;110.498;2022-11-12T11:16:15;23.80;92.00
25468;DHT22;13384;24.794;110.498;2022-11-12T11:19:05;23.80;92.00
25468;DHT22;13384;24.794;110.498;2022-11-12T11:22:17;23.90;92.00
25468;DHT22;13384;24.794;110.498;2022-11-12T11:25:26;23.80;92.00
25468;DHT22;13384;24.794;110.498;2022-11-12T11:34:39;23.80;92.00
25468;DHT22;13384;24.794;110.498;2022-11-12T11:37:47;23.80;92.00
25468;DHT22;13384;24.794;110.498;2022-11-12T11:41:07;23.80;91.90
25468;DHT22;13384;24.794;110.498;2022-11-12T11:47:28;23.80;92.00
25468;DHT22;13384;24.794;110.498;2022-11-12T11:51:29;23.80;92.00
25468;DHT22;13384;24.794;110.498;2022-11-12T11:57:05;23.80;92.00
25468;DHT22;13384;24.794;110.498;2022-11-12T12:00:17;23.80;92.00
25468;DHT22;13384;24.794;110.498;2022-11-12T12:06:25;23.80;92.00
25468;DHT22;13384;24.794;110.498;2022-11-12T12:09:47;23.80;92.00
25468;DHT22;13384;24.794;110.498;2022-11-12T12:25:40;23.80;92.00
25468;DHT22;13384;24.794;110.498;2022-11-12T12:31:39;23.80;92.00
25468;DHT22;13384;24.794;110.498;2022-11-12T12:34:42;23.80;92.00
25468;DHT22;13384;24.794;110.498;2022-11-12T12:37:45;23.80;92.00
25468;DHT22;13384;24.794;110.498;2022-11-12T12:41:03;23.80;92.00
25468;DHT22;13384;24.794;110.498;2022-11-12T12:44:04;23.80;92.00
25468;DHT22;13384;24.794;110.498;2022-11-12T12:46:58;23.80;92.00
25468;DHT22;13384;24.794;110.498;2022-11-12T12:49:48;23.80;92.00
25468;DHT22;13384;24.794;110.498;2022-11-12T12:55:50;23.80;92.00
25468;DHT22;13384;24.794;110.498;2022-11-12T12:58:41;23.80;91.90
25468;DHT22;13384;24.794;110.498;2022-11-12T13:01:33;23.80;92.00
25468;DHT22;13384;24.794;110.498;2022-11-12T13:04:56;23.80;92.00
25468;DHT22;13384;24.794;110.498;2022-11-12T13:07:47;23.80;92.00
25468;DHT22;13384;24.794;110.498;2022-11-12T13:13:33;23.80;92.00
25468;DHT22;13384;24.794;110.498;2022-11-12T13:19:43;23.80;92.00
25468;DHT22;13384;24.794;110.498;2022-11-12T13:22:33;23.80;92.00
25468;DHT22;13384;24.794;110.498;2022-11-12T13:25:35;23.80;92.00
25468;DHT22;13384;24.794;110.498;2022-11-12T13:28:24;23.80;92.00
25468;DHT22;13384;24.794;110.498;2022-11-12T13:31:26;23.80;92.00
25468;DHT22;13384;24.794;110.498;2022-11-12T13:34:35;23.70;92.00
25468;DHT22;13384;24.794;110.498;2022-11-12T13:41:17;23.80;92.00
25468;DHT22;13384;24.794;110.498;2022-11-12T13:44:27;23.80;92.00
25468;DHT22;13384;24.794;110.498;2022-11-12T13:47:20;23.80;91.90
25468;DHT22;13384;24.794;110.498;2022-11-12T13:50:28;23.80;91.90
25468;DHT22;13384;24.794;110.498;2022-11-12T13:53:30;23.80;91.90
25468;DHT22;13384;24.794;110.498;2022-11-12T13:56:38;23.80;91.90
25468;DHT22;13384;24.794;110.498;2022-11-12T13:59:28;23.90;92.20
25468;DHT22;13384;24.794;110.498;2022-11-12T14:05:19;23.80;91.90
25468;DHT22;13384;24.794;110.498;2022-11-12T14:08:18;23.80;92.30
25468;DHT22;13384;24.794;110.498;2022-11-12T14:11:44;23.80;92.00
25468;DHT22;13384;24.794;110.498;2022-11-12T14:18:39;23.70;92.00
25468;DHT22;13384;24.794;110.498;2022-11-12T14:21:32;23.70;91.70
25468;DHT22;13384;24.794;110.498;2022-11-12T14:24:21;23.70;92.00
25468;DHT22;13384;24.794;110.498;2022-11-12T14:30:20;23.70;91.90
25468;DHT22;13384;24.794;110.498;2022-11-12T14:33:16;23.70;92.30
25468;DHT22;13384;24.794;110.498;2022-11-12T14:36:15;23.70;91.60
25468;DHT22;13384;24.794;110.498;2022-11-12T14:39:08;23.70;91.60
25468;DHT22;13384;24.794;110.498;2022-11-12T14:41:59;23.70;91.80
25468;DHT22;13384;24.794;110.498;2022-11-12T14:44:48;23.70;91.80
25468;DHT22;13384;24.794;110.498;2022-11-12T14:47:37;23.70;91.50
25468;DHT22;13384;24.794;110.498;2022-11-12T14:50:30;23.70;91.50
25468;DHT22;13384;24.794;110.498;2022-11-12T14:53:40;23.70;91.50
25468;DHT22;13384;24.794;110.498;2022-11-12T14:56:43;23.60;91.40
25468;DHT22;13384;24.794;110.498;2022-11-12T14:59:35;23.70;91.50
25468;DHT22;13384;24.794;110.498;2022-11-12T15:02:29;23.70;91.70
25468;DHT22;13384;24.794;110.498;2022-11-12T15:08:42;23.70;91.80
25468;DHT22;13384;24.794;110.498;2022-11-12T15:11:44;23.60;91.60
25468;DHT22;13384;24.794;110.498;2022-11-12T15:14:36;23.70;91.60
25468;DHT22;13384;24.794;110.498;2022-11-12T15:17:32;23.60;91.60
25468;DHT22;13384;24.794;110.498;2022-11-12T15:20:22;23.70;91.50
25468;DHT22;13384;24.794;110.498;2022-11-12T15:23:18;23.60;91.50
25468;DHT22;13384;24.794;110.498;2022-11-12T15:26:15;23.70;91.70
25468;DHT22;13384;24.794;110.498;2022-11-12T15:35:18;23.70;91.50
25468;DHT22;13384;24.794;110.498;2022-11-12T15:41:29;23.60;91.60
25468;DHT22;13384;24.794;110.498;2022-11-12T15:44:18;23.60;91.60
25468;DHT22;13384;24.794;110.498;2022-11-12T15:47:20;23.60;91.80
25468;DHT22;13384;24.794;110.498;2022-11-12T15:50:16;23.60;91.70
25468;DHT22;13384;24.794;110.498;2022-11-12T15:53:05;23.60;91.60
25468;DHT22;13384;24.794;110.498;2022-11-12T15:55:56;23.60;91.60
25468;DHT22;13384;24.794;110.498;2022-11-12T15:58:45;23.60;91.60
25468;DHT22;13384;24.794;110.498;2022-11-12T16:01:34;23.60;91.60
25468;DHT22;13384;24.794;110.498;2022-11-12T16:04:25;23.60;91.80
25468;DHT22;13384;24.794;110.498;2022-11-12T16:07:14;23.60;91.70
25468;DHT22;13384;24.794;110.498;2022-11-12T16:10:03;23.60;91.70
25468;DHT22;13384;24.794;110.498;2022-11-12T16:12:57;23.60;91.70
25468;DHT22;13384;24.794;110.498;2022-11-12T16:15:49;23.60;91.60
25468;DHT22;13384;24.794;110.498;2022-11-12T16:18:39;23.60;91.80
25468;DHT22;13384;24.794;110.498;2022-11-12T16:21:28;23.60;91.80
25468;DHT22;13384;24.794;110.498;2022-11-12T16:24:18;23.60;91.60
25468;DHT22;13384;24.794;110.498;2022-11-12T16:27:14;23.60;91.60
25468;DHT22;13384;24.794;110.498;2022-11-12T16:30:05;23.60;91.90
25468;DHT22;13384;24.794;110.498;2022-11-12T16:32:59;23.60;91.70
25468;DHT22;13384;24.794;110.498;2022-11-12T16:35:48;23.60;91.80
25468;DHT22;13384;24.794;110.498;2022-11-12T16:38:37;23.60;91.70
25468;DHT22;13384;24.794;110.498;2022-11-12T16:41:26;23.60;91.80
25468;DHT22;13384;24.794;110.498;2022-11-12T16:44:15;23.60;91.60
25468;DHT22;13384;24.794;110.498;2022-11-12T16:47:05;23.60;91.70
25468;DHT22;13384;24.794;110.498;2022-11-12T16:49:54;23.60;91.80
25468;DHT22;13384;24.794;110.498;2022-11-12T16:52:47;23.60;91.80
25468;DHT22;13384;24.794;110.498;2022-11-12T16:55:56;23.60;92.10
25468;DHT22;13384;24.794;110.498;2022-11-12T16:58:46;23.60;91.70
25468;DHT22;13384;24.794;110.498;2022-11-12T17:01:36;23.60;91.70
25468;DHT22;13384;24.794;110.498;2022-11-12T17:04:25;23.60;91.80
25468;DHT22;13384;24.794;110.498;2022-11-12T17:07:14;23.60;91.70
25468;DHT22;13384;24.794;110.498;2022-11-12T17:10:04;23.60;91.80
25468;DHT22;13384;24.794;110.498;2022-11-12T17:12:53;23.60;91.80
25468;DHT22;13384;24.794;110.498;2022-11-12T17:15:42;23.50;91.70
25468;DHT22;13384;24.794;110.498;2022-11-12T17:18:31;23.60;91.90
25468;DHT22;13384;24.794;110.498;2022-11-12T17:21:20;23.50;91.80
25468;DHT22;13384;24.794;110.498;2022-11-12T17:24:10;23.50;91.70
25468;DHT22;13384;24.794;110.498;2022-11-12T17:27:03;23.60;91.80
25468;DHT22;13384;24.794;110.498;2022-11-12T17:29:52;23.60;91.90
25468;DHT22;13384;24.794;110.498;2022-11-12T17:32:41;23.60;91.80
25468;DHT22;13384;24.794;110.498;2022-11-12T17:35:32;23.50;91.70
25468;DHT22;13384;24.794;110.498;2022-11-12T17:38:21;23.50;91.80
25468;DHT22;13384;24.794;110.498;2022-11-12T17:41:11;23.50;91.80
25468;DHT22;13384;24.794;110.498;2022-11-12T17:44:01;23.50;91.90
25468;DHT22;13384;24.794;110.498;2022-11-12T17:46:50;23.50;91.90
25468;DHT22;13384;24.794;110.498;2022-11-12T17:49:39;23.50;92.00
25468;DHT22;13384;24.794;110.498;2022-11-12T17:52:30;23.50;91.90
25468;DHT22;13384;24.794;110.498;2022-11-12T17:55:19;23.50;91.90
25468;DHT22;13384;24.794;110.498;2022-11-12T17:58:09;23.50;92.10
25468;DHT22;13384;24.794;110.498;2022-11-12T18:01:07;23.50;91.70
25468;DHT22;13384;24.794;110.498;2022-11-12T18:03:57;23.50;92.10
25468;DHT22;13384;24.794;110.498;2022-11-12T18:06:46;23.50;91.90
25468;DHT22;13384;24.794;110.498;2022-11-12T18:09:36;23.50;92.10
25468;DHT22;13384;24.794;110.498;2022-11-12T18:12:24;23.50;92.00
25468;DHT22;13384;24.794;110.498;2022-11-12T18:15:22;23.40;92.50
25468;DHT22;13384;24.794;110.498;2022-11-12T18:18:11;23.40;92.10
25468;DHT22;13384;24.794;110.498;2022-11-12T18:21:00;23.40;91.80
25468;DHT22;13384;24.794;110.498;2022-11-12T18:23:49;23.40;92.00
25468;DHT22;13384;24.794;110.498;2022-11-12T18:26:38;23.40;92.10
25468;DHT22;13384;24.794;110.498;2022-11-12T18:29:40;23.40;91.80
25468;DHT22;13384;24.794;110.498;2022-11-12T18:32:30;23.30;91.90
25468;DHT22;13384;24.794;110.498;2022-11-12T18:35:18;23.40;91.90
25468;DHT22;13384;24.794;110.498;2022-11-12T18:38:14;23.40;91.90
25468;DHT22;13384;24.794;110.498;2022-11-12T18:41:08;23.30;92.00
25468;DHT22;13384;24.794;110.498;2022-11-12T18:43:57;23.30;91.90
25468;DHT22;13384;24.794;110.498;2022-11-12T18:46:47;23.40;92.10
25468;DHT22;13384;24.794;110.498;2022-11-12T18:49:35;23.40;92.00
25468;DHT22;13384;24.794;110.498;2022-11-12T18:52:25;23.40;91.80
25468;DHT22;13384;24.794;110.498;2022-11-12T18:55:14;23.30;91.90
25468;DHT22;13384;24.794;110.498;2022-11-12T18:58:03;23.30;92.00
25468;DHT22;13384;24.794;110.498;2022-11-12T19:00:52;23.30;91.90
25468;DHT22;13384;24.794;110.498;2022-11-12T19:03:41;23.30;91.90
25468;DHT22;13384;24.794;110.498;2022-11-12T19:06:31;23.30;92.00
25468;DHT22;13384;24.794;110.498;2022-11-12T19:09:20;23.30;91.90
25468;DHT22;13384;24.794;110.498;2022-11-12T19:12:09;23.30;92.00
25468;DHT22;13384;24.794;110.498;2022-11-12T19:14:58;23.30;91.90
25468;DHT22;13384;24.794;110.498;2022-11-12T19:17:46;23.30;92.10
25468;DHT22;13384;24.794;110.498;2022-11-12T19:20:35;23.30;92.00
25468;DHT22;13384;24.794;110.498;2022-11-12T19:23:25;23.30;92.10
25468;DHT22;13384;24.794;110.498;2022-11-12T19:26:16;23.30;92.00
25468;DHT22;13384;24.794;110.498;2022-11-12T19:29:05;23.30;92.00
25468;DHT22;13384;24.794;110.498;2022-11-12T19:32:00;23.30;92.00
25468;DHT22;13384;24.794;110.498;2022-11-12T19:35:09;23.30;91.90
25468;DHT22;13384;24.794;110.498;2022-11-12T19:37:58;23.30;91.90
25468;DHT22;13384;24.794;110.498;2022-11-12T19:40:47;23.30;92.00
25468;DHT22;13384;24.794;110.498;2022-11-12T19:43:36;23.30;92.00
25468;DHT22;13384;24.794;110.498;2022-11-12T19:46:28;23.30;91.90
25468;DHT22;13384;24.794;110.498;2022-11-12T19:49:18;23.30;92.00
25468;DHT22;13384;24.794;110.498;2022-11-12T19:52:07;23.30;91.90
25468;DHT22;13384;24.794;110.498;2022-11-12T19:54:57;23.30;91.80
25468;DHT22;13384;24.794;110.498;2022-11-12T19:57:46;23.30;91.90
25468;DHT22;13384;24.794;110.498;2022-11-12T20:00:35;23.30;91.90
25468;DHT22;13384;24.794;110.498;2022-11-12T20:03:24;23.20;91.90
25468;DHT22;13384;24.794;110.498;2022-11-12T20:06:17;23.20;91.90
25468;DHT22;13384;24.794;110.498;2022-11-12T20:09:06;23.20;92.00
25468;DHT22;13384;24.794;110.498;2022-11-12T20:11:55;23.20;91.90
25468;DHT22;13384;24.794;110.498;2022-11-12T20:14:45;23.20;91.90
25468;DHT22;13384;24.794;110.498;2022-11-12T20:17:35;23.20;91.90
25468;DHT22;13384;24.794;110.498;2022-11-12T20:20:27;23.20;91.90
25468;DHT22;13384;24.794;110.498;2022-11-12T20:23:30;23.20;91.90
25468;DHT22;13384;24.794;110.498;2022-11-12T20:26:20;23.20;91.90
25468;DHT22;13384;24.794;110.498;2022-11-12T20:29:09;23.20;91.90
25468;DHT22;13384;24.794;110.498;2022-11-12T20:31:58;23.20;91.90
25468;DHT22;13384;24.794;110.498;2022-11-12T20:34:46;23.20;91.90
25468;DHT22;13384;24.794;110.498;2022-11-12T20:37:35;23.20;91.90
25468;DHT22;13384;24.794;110.498;2022-11-12T20:40:24;23.20;91.90
25468;DHT22;13384;24.794;110.498;2022-11-12T20:43:13;23.20;91.90
25468;DHT22;13384;24.794;110.498;2022-11-12T20:46:01;23.20;91.90
25468;DHT22;13384;24.794;110.498;2022-11-12T20:48:50;23.20;91.80
25468;DHT22;13384;24.794;110.498;2022-11-12T20:51:42;23.20;91.90
25468;DHT22;13384;24.794;110.498;2022-11-12T20:54:31;23.20;91.90
25468;DHT22;13384;24.794;110.498;2022-11-12T20:57:19;23.20;91.80
25468;DHT22;13384;24.794;110.498;2022-11-12T21:00:09;23.20;91.90
25468;DHT22;13384;24.794;110.498;2022-11-12T21:03:01;23.10;91.80
25468;DHT22;13384;24.794;110.498;2022-11-12T21:06:02;23.20;91.90
25468;DHT22;13384;24.794;110.498;2022-11-12T21:08:53;23.10;91.90
25468;DHT22;13384;24.794;110.498;2022-11-12T21:11:41;23.10;92.20
25468;DHT22;13384;24.794;110.498;2022-11-12T21:14:30;23.10;91.90
25468;DHT22;13384;24.794;110.498;2022-11-12T21:17:32;23.10;91.90